Flight Track Log - Related Links

Times and Time Zones

All times are in EDT time to prevent confusion due to time zone crossing. See the EJM826 flight status page for this flight to view local times or setup timezone preferences in your user account.

Time Position Orientation Groundspeed Altitude Reporting Facility
EDT Latitude Longitude Course Direction KTS MPH feet Rate Location/Type
Mon 03:30:28 PM 29.6606 -95.2669 321° Northwest 159 183 700  Level Houston Center
Mon 03:31:24 PM 29.6975 -95.3008 321° Northwest 200 230 2,700 2,376 Climbing Houston Center
Mon 03:32:09 PM 29.7275 -95.3356 315° West 200 230 4,700 2,656 Climbing Houston Center
Mon 03:32:25 PM 29.7358 -95.3539 298° West 227 261 5,400 1,742 Climbing Houston Center
Mon 03:33:11 PM 29.7539 -95.4081 291° West 246 283 6,500 1,791 Climbing Houston Center
Mon 03:33:32 PM 29.7631 -95.4444 286° West 288 331 7,400 2,226 Climbing Houston Center
Mon 03:34:13 PM 29.7769 -95.4936 288° West 277 319 8,800 2,361 Climbing Houston Center
Mon 03:34:33 PM 29.7878 -95.5306 289° West 281 323 9,800 2,032 Climbing Houston Center
Mon 03:35:15 PM 29.8039 -95.5869 288° West 284 327 10,900 1,771 Climbing Houston Center
Mon 03:36:18 PM 29.8275 -95.6717 288° West 298 343 12,900 2,112 Climbing Houston Center
Mon 03:37:20 PM 29.8531 -95.7797 285° West 293 337 15,300 1,887 Climbing Houston Center
Mon 03:38:22 PM 29.8831 -95.8744 290° West 312 359 16,800 1,355 Climbing Houston Center
Mon 03:39:24 PM 29.9081 -95.9708 287° West 318 366 18,100 1,403 Climbing Houston Center
Mon 03:40:26 PM 29.9300 -96.0808 283° West 330 380 19,700 1,452 Climbing Houston Center
Mon 03:41:28 PM 29.9353 -96.1897 273° West 343 395 21,100 1,355 Climbing Houston Center
Mon 03:42:30 PM 29.9464 -96.2994 277° West 348 400 22,500 1,306 Climbing Houston Center
Mon 03:43:32 PM 29.9733 -96.4083 286° West 354 407 23,800 1,452 Climbing Houston Center
Mon 03:44:34 PM 30.0031 -96.5436 284° West 364 419 25,500 1,440 Climbing Houston Center
Mon 03:45:37 PM 30.0292 -96.6561 285° West 365 420 26,800 1,200 Climbing Houston Center
Mon 03:46:39 PM 30.0556 -96.7711 285° West 373 429 28,000 1,113 Climbing Houston Center
Mon 03:47:41 PM 30.0669 -96.8917 276° West 380 437 29,100 1,113 Climbing Houston Center
Mon 03:48:43 PM 30.0683 -97.0131 271° West 381 438 30,300 1,210 Climbing Houston Center
Mon 03:49:45 PM 30.0700 -97.1628 271° West 390 449 31,600 1,161 Climbing Houston Center
Mon 03:50:47 PM 30.0725 -97.2889 271° West 395 455 32,700 1,210 Climbing Houston Center
Mon 03:51:49 PM 30.0989 -97.3994 285° West 388 447 34,100 1,355 Climbing Houston Center
Mon 03:52:51 PM 30.1314 -97.5400 285° West 385 443 35,500 1,258 Climbing Houston Center
Mon 03:53:53 PM 30.1594 -97.6594 285° West 382 440 36,700 1,065 Climbing Houston Center
Mon 03:54:55 PM 30.1869 -97.7800 285° West 381 438 37,700 864 Climbing Houston Center
Mon 03:55:58 PM 30.2150 -97.9022 285° West 379 436 38,500 912 Climbing Houston Center
Mon 03:57:00 PM 30.2447 -98.0300 285° West 382 440 39,600 726 Climbing Houston Center
Mon 03:58:02 PM 30.2706 -98.1475 284° West 379 436 40,000 194 Climbing Houston Center
Mon 03:59:04 PM 30.2986 -98.2789 284° West 388 447 40,000  Level Houston Center
Mon 04:00:06 PM 30.3247 -98.3914 285° West 407 468 40,000  Level Houston Center
Mon 04:01:08 PM 30.3589 -98.5453 284° West 418 481 40,000  Level Houston Center
Mon 04:02:10 PM 30.3889 -98.6803 284° West 427 491 40,000  Level Houston Center
Mon 04:03:12 PM 30.4189 -98.8167 284° West 432 497 40,000  Level Houston Center
Mon 04:04:14 PM 30.4492 -98.9536 284° West 433 498 40,000  Level Houston Center
Mon 04:05:16 PM 30.4794 -99.0919 284° West 438 504 40,000  Level Houston Center
Mon 04:06:19 PM 30.5128 -99.2453 284° West 437 503 40,000  Level Houston Center
Mon 04:07:21 PM 30.5408 -99.3811 284° West 437 503 40,000  Level Houston Center
Mon 04:08:23 PM 30.5717 -99.5181 285° West 440 506 40,000  Level Houston Center
Mon 04:09:25 PM 30.6017 -99.6544 284° West 439 505 40,000  Level Houston Center
Mon 04:10:27 PM 30.6272 -99.7886 283° West 428 493 40,000  Level Houston Center
Mon 04:11:29 PM 30.6622 -99.9506 284° West 437 503 40,000  Level Houston Center
Mon 04:12:31 PM 30.6914 -100.0878 284° West 436 502 40,000  Level Houston Center
Mon 04:13:33 PM 30.7194 -100.2256 283° West 440 506 40,000  Level Houston Center
Mon 04:14:35 PM 30.7492 -100.3625 284° West 441 507 40,000  Level Houston Center
Mon 04:15:37 PM 30.7767 -100.4956 284° West 420 483 40,000  Level Houston Center
Mon 04:16:40 PM 30.8094 -100.6625 283° West 435 501 40,000  Level Houston Center
Mon 04:17:42 PM 30.8383 -100.8006 284° West 441 507 40,000  Level Houston Center
Mon 04:18:44 PM 30.8650 -100.9347 283° West 429 494 40,000  Level Houston Center
Mon 04:19:46 PM 30.8931 -101.0736 283° West 441 507 40,000  Level Houston Center
Mon 04:20:48 PM 30.9211 -101.2058 284° West 420 483 40,000  Level Houston Center
Mon 04:21:50 PM 30.9517 -101.3667 283° West 432 497 40,000  Level Houston Center
Mon 04:22:52 PM 30.9764 -101.5056 282° West 435 501 40,000  Level Houston Center
Mon 04:23:54 PM 31.0033 -101.6425 283° West 436 502 40,000  Level Houston Center
Mon 04:24:57 PM 31.0317 -101.7833 283° West 440 506 40,000  Level Houston Center
Mon 04:25:59 PM 31.0583 -101.9181 283° West 431 496 40,000  Level Houston Center
Mon 04:27:01 PM 31.0878 -102.0825 282° West 428 493 40,000  Level Houston Center
Mon 04:28:03 PM 31.1133 -102.2219 282° West 431 496 40,000  Level Houston Center
Mon 04:28:53 PM 31.1375 -102.3375 284° West 432 497 40,000  Level Albuquerque Center
Mon 04:29:55 PM 31.1631 -102.4747 282° West 432 497 40,000  Level Albuquerque Center
Mon 04:30:57 PM 31.1878 -102.6136 282° West 426 490 40,000  Level Albuquerque Center
Mon 04:31:59 PM 31.2131 -102.7494 282° West 427 491 40,000  Level Albuquerque Center
Mon 04:33:01 PM 31.2383 -102.8858 282° West 428 493 40,000  Level Albuquerque Center
Mon 04:34:03 PM 31.2639 -103.0231 282° West 431 496 40,000  Level Albuquerque Center
Mon 04:35:05 PM 31.2931 -103.1864 282° West 430 495 40,000  Level Albuquerque Center
Mon 04:36:07 PM 31.3175 -103.3228 282° West 430 495 40,000  Level Albuquerque Center
Mon 04:37:09 PM 31.3425 -103.4597 282° West 430 495 40,000  Level Albuquerque Center
Mon 04:38:11 PM 31.3669 -103.5961 282° West 430 495 40,000  Level Albuquerque Center
Mon 04:39:13 PM 31.3911 -103.7328 282° West 429 494 40,000  Level Albuquerque Center
Mon 04:40:15 PM 31.4164 -103.8742 282° West 431 496 40,000  Level Albuquerque Center
Mon 04:41:17 PM 31.4408 -104.0111 282° West 431 496 40,000  Level Albuquerque Center
Mon 04:42:19 PM 31.4658 -104.1472 282° West 430 495 40,000  Level Albuquerque Center
Mon 04:43:21 PM 31.4925 -104.3111 281° West 429 494 40,000  Level Albuquerque Center
Mon 04:44:23 PM 31.5172 -104.4478 282° West 430 495 40,000  Level Albuquerque Center
Mon 04:45:25 PM 31.5394 -104.5853 281° West 431 496 40,000  Level Albuquerque Center
Mon 04:46:27 PM 31.5642 -104.7217 282° West 431 496 40,000  Level Albuquerque Center
Mon 04:47:29 PM 31.5878 -104.8600 281° West 433 498 40,000  Level Albuquerque Center
Mon 04:48:31 PM 31.6156 -105.0247 281° West 434 499 40,000  Level Albuquerque Center
Mon 04:49:33 PM 31.6372 -105.1606 281° West 431 496 40,000  Level Albuquerque Center
Mon 04:50:35 PM 31.6586 -105.2964 281° West 429 494 40,000  Level Albuquerque Center
Mon 04:51:36 PM 31.6808 -105.4325 281° West 428 493 40,000  Level Albuquerque Center
Mon 04:52:38 PM 31.7025 -105.5697 281° West 430 495 40,000  Level Albuquerque Center
Mon 04:53:40 PM 31.7300 -105.7325 281° West 427 491 40,000  Level Albuquerque Center
Mon 04:54:42 PM 31.7508 -105.8681 280° West 425 489 40,000  Level Albuquerque Center
Mon 04:55:44 PM 31.7714 -106.0031 280° West 421 484 40,000  Level Albuquerque Center
Mon 04:56:46 PM 31.7931 -106.1372 281° West 420 483 40,000  Level Albuquerque Center
Mon 04:57:48 PM 31.8206 -106.2719 284° West 427 491 40,000  Level Albuquerque Center
Mon 04:58:50 PM 31.8900 -106.3806 307° West 420 483 40,000  Level Albuquerque Center
Mon 04:59:52 PM 31.9731 -106.4856 313° West 421 484 40,000  Level Albuquerque Center
Mon 05:00:54 PM 32.0517 -106.5878 312° West 420 483 40,000  Level Albuquerque Center
Mon 05:01:56 PM 32.1450 -106.7117 312° West 422 486 40,000  Level Albuquerque Center
Mon 05:02:58 PM 32.2233 -106.8153 312° West 424 488 40,000  Level Albuquerque Center
Mon 05:04:00 PM 32.3094 -106.9325 311° West 425 489 40,000  Level Albuquerque Center
Mon 05:05:02 PM 32.3892 -107.0367 312° West 428 493 40,000  Level Albuquerque Center
Mon 05:06:03 PM 32.4553 -107.1289 310° West 430 495 40,000  Level Albuquerque Center
Mon 05:07:05 PM 32.5458 -107.2486 312° West 429 494 40,000  Level Albuquerque Center
Mon 05:08:07 PM 32.6247 -107.3542 312° West 429 494 40,000  Level Albuquerque Center
Mon 05:09:09 PM 32.7036 -107.4608 311° West 430 495 40,000  Level Albuquerque Center
Mon 05:10:11 PM 32.7806 -107.5692 310° West 431 496 40,000  Level Albuquerque Center
Mon 05:11:13 PM 32.8747 -107.6972 311° West 430 495 40,000  Level Albuquerque Center
Mon 05:12:15 PM 32.9528 -107.8047 311° West 430 495 40,000  Level Albuquerque Center
Mon 05:13:17 PM 33.0333 -107.9078 313° West 429 494 40,000  Level Albuquerque Center
Mon 05:14:19 PM 33.1117 -108.0150 311° West 430 495 40,000  Level Albuquerque Center
Mon 05:15:21 PM 33.1906 -108.1219 311° West 431 496 40,000  Level Albuquerque Center
Mon 05:16:23 PM 33.2681 -108.2289 311° West 429 494 40,000  Level Albuquerque Center
Mon 05:17:25 PM 33.3619 -108.3583 311° West 431 496 40,000  Level Albuquerque Center
Mon 05:18:26 PM 33.4389 -108.4653 311° West 429 494 40,000  Level Albuquerque Center
Mon 05:19:28 PM 33.5158 -108.5725 311° West 428 493 40,000  Level Albuquerque Center
Mon 05:20:30 PM 33.5936 -108.6800 311° West 429 494 40,000  Level Albuquerque Center
Mon 05:21:32 PM 33.6703 -108.7875 311° West 428 493 40,000  Level Albuquerque Center
Mon 05:22:34 PM 33.7625 -108.9167 311° West 428 493 40,000  Level Albuquerque Center
Mon 05:23:36 PM 33.8386 -109.0253 310° West 427 491 40,000  Level Albuquerque Center
Mon 05:24:38 PM 33.9150 -109.1339 310° West 427 491 40,000  Level Albuquerque Center
Mon 05:25:40 PM 33.9914 -109.2428 310° West 427 491 40,000  Level Albuquerque Center
Mon 05:26:42 PM 34.0686 -109.3506 311° West 427 491 40,000  Level Albuquerque Center
Mon 05:27:43 PM 34.1539 -109.4733 310° West 428 493 40,000  Level Albuquerque Center
Mon 05:28:45 PM 34.2400 -109.5942 311° West 426 490 40,000  Level Albuquerque Center
Mon 05:29:47 PM 34.3133 -109.7008 310° West 428 493 40,000  Level Albuquerque Center
Mon 05:30:49 PM 34.3867 -109.8069 310° West 429 494 40,000  Level Albuquerque Center
Mon 05:31:51 PM 34.4731 -109.9308 310° West 430 495 40,000  Level Albuquerque Center
Mon 05:32:53 PM 34.5469 -110.0378 310° West 431 496 40,000  Level Albuquerque Center
Mon 05:33:54 PM 34.6333 -110.1639 310° West 433 498 40,000  Level Albuquerque Center
Mon 05:34:56 PM 34.7086 -110.2728 310° West 437 503 40,000  Level Albuquerque Center
Mon 05:35:58 PM 34.7958 -110.3994 310° West 437 503 40,000  Level Albuquerque Center
Mon 05:37:00 PM 34.8694 -110.5067 310° West 435 501 40,000  Level Albuquerque Center
Mon 05:38:02 PM 34.9528 -110.6319 309° West 429 494 40,000  Level Albuquerque Center
Mon 05:39:04 PM 35.0239 -110.7372 310° West 424 488 40,000  Level Albuquerque Center
Mon 05:40:05 PM 35.0697 -110.8600 295° West 436 502 40,000  Level Albuquerque Center
Mon 05:41:07 PM 35.1036 -111.0117 285° West 421 484 40,000 -532 Level Albuquerque Center
Mon 05:42:09 PM 35.1353 -111.1564 285° West 421 484 38,900 -1,873 Descending Albuquerque Center
Mon 05:43:44 PM 35.1825 -111.3781 285° West 424 488 35,100 -2,369 Descending Los Angeles Center
Mon 05:44:46 PM 35.2128 -111.5194 285° West 430 495 32,700 -2,323 Descending Los Angeles Center
Mon 05:45:48 PM 35.2433 -111.6628 285° West 428 493 30,300 -1,296 Descending Los Angeles Center
Mon 05:46:51 PM 35.2719 -111.8044 284° West 430 495 30,000 -144 Descending Los Angeles Center
Mon 05:47:53 PM 35.3022 -111.9444 285° West 430 495 30,000  Level Los Angeles Center
Mon 05:48:55 PM 35.3317 -112.0850 284° West 429 494 30,000  Level Los Angeles Center
Mon 05:49:57 PM 35.3675 -112.2567 284° West 435 501 30,000  Level Los Angeles Center
Mon 05:50:59 PM 35.3972 -112.4006 284° West 438 504 30,000  Level Los Angeles Center
Mon 05:52:01 PM 35.4264 -112.5422 284° West 436 502 30,000 -97 Level Los Angeles Center
Mon 05:53:03 PM 35.4567 -112.6878 284° West 433 498 29,800 -387 Descending Los Angeles Center
Mon 05:54:05 PM 35.4856 -112.8314 284° West 433 498 29,200 -629 Descending Los Angeles Center
Mon 05:55:07 PM 35.5156 -112.9858 283° West 419 482 28,500 -581 Descending Los Angeles Center
Mon 05:56:09 PM 35.5428 -113.1250 284° West 417 480 28,000 -242 Descending Los Angeles Center
Mon 05:57:11 PM 35.5703 -113.2597 284° West 410 472 28,000  Level Los Angeles Center
Mon 05:58:13 PM 35.5958 -113.3903 284° West 409 471 28,000 -1,016 Level Los Angeles Center
Mon 05:59:15 PM 35.6275 -113.5544 283° West 417 480 25,900 -2,226 Descending Los Angeles Center
Mon 06:00:17 PM 35.6453 -113.6881 279° West 401 461 23,400 -2,341 Descending Los Angeles Center
Mon 06:01:18 PM 35.6642 -113.8136 281° West 383 441 21,100 -2,226 Descending Los Angeles Center
Mon 06:02:21 PM 35.6806 -113.9358 279° West 368 423 18,800 -1,968 Descending Los Angeles Center
Mon 06:03:23 PM 35.6964 -114.0533 279° West 354 407 17,000 -1,887 Descending Los Angeles Center
Mon 06:04:25 PM 35.7153 -114.1914 280° West 344 396 14,900 -2,026 Descending Los Angeles Center
Mon 06:04:40 PM 35.7192 -114.2219 279° West 348 400 14,400 -1,759 Descending Los Angeles Center
Mon 06:05:23 PM 35.7314 -114.3056 280° West 333 383 13,200 -1,277 Descending Los Angeles Center
Mon 06:05:27 PM 35.7283 -114.2892 103° East 329 379 13,400 -1,273 Climbing Los Angeles Center
Mon 06:06:29 PM 35.7758 -114.3989 298° West 321 369 11,800 -1,524 Descending Los Angeles Center
Mon 06:06:30 PM 35.7789 -114.4008 333° Northwest 330 380 11,800 -643 Level Los Angeles Center
Mon 06:07:25 PM 35.8503 -114.4486 332° Northwest 322 371 11,200 -689 Descending Los Angeles Center
Mon 06:07:31 PM 35.8556 -114.4497 350° North 320 368 11,100 -689 Descending Los Angeles Center
Mon 06:08:26 PM 35.9311 -114.5008 331° Northwest 328 377 10,500 -677 Descending Los Angeles Center
Mon 06:08:33 PM 35.9347 -114.5025 340° North 324 373 10,400 -627 Descending Los Angeles Center
Mon 06:09:33 PM 36.0197 -114.5589 332° Northwest 316 364 9,800 -484 Descending Los Angeles Center
Mon 06:09:35 PM 36.0147 -114.5553 150° Southeast 326 375 9,900 -750 Climbing Los Angeles Center
Mon 06:10:37 PM 36.0814 -114.5967 333° Northwest 281 323 9,000 -1,031 Descending Los Angeles Center
Mon 06:10:39 PM 36.0931 -114.6061 327° Northwest 274 315 8,800 -1,158 Descending Los Angeles Center
Mon 06:11:34 PM 36.1317 -114.6625 310° West 257 296 7,900 -900 Descending Los Angeles Center
Mon 06:11:39 PM 36.1300 -114.6553 106° East 262 302 7,900  Level Los Angeles Center
Mon 06:12:35 PM 36.1422 -114.7494 279° West 261 300 7,900 -97 Level Los Angeles Center
Mon 06:12:41 PM 36.1431 -114.7583 277° West 252 290 7,800 -1,377 Descending Los Angeles Center
Mon 06:13:36 PM 36.1514 -114.8503 276° West 275 316 6,500 -1,355 Descending Los Angeles Center
Mon 06:13:43 PM 36.1511 -114.8539 265° West 270 311 6,400 -1,418 Descending Los Angeles Center
Mon 06:14:31 PM 36.1511 -114.9383 270° West 273 314 5,200 -1,355 Descending Los Angeles Center
Mon 06:14:45 PM 36.1514 -114.9472 272° West 274 315 5,000 -1,300 Descending Los Angeles Center
Mon 06:15:31 PM 36.1500 -115.0319 269° West 270 311 3,900 -1,065 Descending Los Angeles Center
Mon 06:15:47 PM 36.1486 -115.0411 259° West 273 314 3,900 -295 Level Los Angeles Center
Mon 06:16:32 PM 36.1492 -115.1069 271° West 191 220 3,600 -387 Descending Los Angeles Center
Mon 06:16:49 PM 36.1483 -115.1125 259° West 232 267 3,500 -885 Descending Los Angeles Center
Mon 06:17:33 PM 36.1203 -115.1431 221° Southwest 141 162 2,700 -871 Descending Los Angeles Center
Mon 06:17:51 PM 36.1161 -115.1433 183° South 179 206 2,600 -333 Descending Los Angeles Center
Mon 06:19:00 PM 36.0801 -115.1523 270° West  Level Estimated
Mon 06:26:00 PM 36.0801 -115.1523 270° West  Level Estimated

Login

Don't have an account? Register now (free) for customized features, flight alerts, and more!